sensor_id;sensor_type;location;lat;lon;timestamp;P1;durP1;ratioP1;P2;durP2;ratioP2
32329;SDS011;18807;52.434;13.238;2023-04-12T00:01:38;4.00;;;2.13;;
32329;SDS011;18807;52.434;13.238;2023-04-12T00:09:12;2.88;;;2.13;;
32329;SDS011;18807;52.434;13.238;2023-04-12T00:17:05;4.25;;;2.85;;
32329;SDS011;18807;52.434;13.238;2023-04-12T00:24:54;5.83;;;2.47;;
32329;SDS011;18807;52.434;13.238;2023-04-12T00:32:36;6.30;;;3.67;;
32329;SDS011;18807;52.434;13.238;2023-04-12T00:40:12;3.90;;;2.40;;
32329;SDS011;18807;52.434;13.238;2023-04-12T00:47:48;3.75;;;2.70;;
32329;SDS011;18807;52.434;13.238;2023-04-12T00:55:36;4.00;;;2.60;;
32329;SDS011;18807;52.434;13.238;2023-04-12T01:03:17;4.20;;;1.87;;
32329;SDS011;18807;52.434;13.238;2023-04-12T01:11:12;3.50;;;2.05;;
32329;SDS011;18807;52.434;13.238;2023-04-12T01:28:04;3.08;;;2.15;;
32329;SDS011;18807;52.434;13.238;2023-04-12T01:36:02;4.00;;;1.90;;
32329;SDS011;18807;52.434;13.238;2023-04-12T01:43:54;3.85;;;1.70;;
32329;SDS011;18807;52.434;13.238;2023-04-12T01:51:48;4.13;;;2.38;;
32329;SDS011;18807;52.434;13.238;2023-04-12T01:59:33;3.20;;;2.42;;
32329;SDS011;18807;52.434;13.238;2023-04-12T02:07:52;3.03;;;2.17;;
32329;SDS011;18807;52.434;13.238;2023-04-12T02:15:53;3.67;;;2.20;;
32329;SDS011;18807;52.434;13.238;2023-04-12T02:32:22;3.75;;;2.83;;
32329;SDS011;18807;52.434;13.238;2023-04-12T02:40:02;3.53;;;2.50;;
32329;SDS011;18807;52.434;13.238;2023-04-12T02:47:38;4.28;;;2.20;;
32329;SDS011;18807;52.434;13.238;2023-04-12T02:55:26;5.05;;;2.60;;
32329;SDS011;18807;52.434;13.238;2023-04-12T03:03:39;3.80;;;2.78;;
32329;SDS011;18807;52.434;13.238;2023-04-12T03:11:29;4.97;;;2.20;;
32329;SDS011;18807;52.434;13.238;2023-04-12T03:19:13;6.78;;;3.05;;
32329;SDS011;18807;52.434;13.238;2023-04-12T03:35:16;3.63;;;2.50;;
32329;SDS011;18807;52.434;13.238;2023-04-12T03:43:37;4.65;;;2.38;;
32329;SDS011;18807;52.434;13.238;2023-04-12T03:51:39;3.20;;;2.00;;
32329;SDS011;18807;52.434;13.238;2023-04-12T03:59:43;4.53;;;2.55;;
32329;SDS011;18807;52.434;13.238;2023-04-12T04:07:18;4.43;;;2.45;;
32329;SDS011;18807;52.434;13.238;2023-04-12T04:15:17;7.18;;;2.80;;
32329;SDS011;18807;52.434;13.238;2023-04-12T04:23:02;4.43;;;2.88;;
32329;SDS011;18807;52.434;13.238;2023-04-12T04:30:51;5.43;;;2.92;;
32329;SDS011;18807;52.434;13.238;2023-04-12T04:38:28;5.55;;;2.88;;
32329;SDS011;18807;52.434;13.238;2023-04-12T04:46:11;4.30;;;2.77;;
32329;SDS011;18807;52.434;13.238;2023-04-12T04:53:54;6.80;;;3.50;;
32329;SDS011;18807;52.434;13.238;2023-04-12T05:01:29;4.82;;;2.97;;
32329;SDS011;18807;52.434;13.238;2023-04-12T05:09:20;7.60;;;3.83;;
32329;SDS011;18807;52.434;13.238;2023-04-12T05:17:00;5.35;;;3.85;;
32329;SDS011;18807;52.434;13.238;2023-04-12T05:24:38;6.65;;;4.53;;
32329;SDS011;18807;52.434;13.238;2023-04-12T05:32:56;11.15;;;6.07;;
32329;SDS011;18807;52.434;13.238;2023-04-12T05:40:34;9.73;;;4.90;;
32329;SDS011;18807;52.434;13.238;2023-04-12T05:48:08;7.85;;;4.63;;
32329;SDS011;18807;52.434;13.238;2023-04-12T05:56:00;14.10;;;5.03;;
32329;SDS011;18807;52.434;13.238;2023-04-12T06:03:37;9.83;;;5.40;;
32329;SDS011;18807;52.434;13.238;2023-04-12T06:11:14;9.98;;;5.22;;
32329;SDS011;18807;52.434;13.238;2023-04-12T06:18:56;12.15;;;4.82;;
32329;SDS011;18807;52.434;13.238;2023-04-12T06:26:32;5.97;;;3.78;;
32329;SDS011;18807;52.434;13.238;2023-04-12T06:34:17;7.40;;;3.65;;
32329;SDS011;18807;52.434;13.238;2023-04-12T06:41:59;7.22;;;3.95;;
32329;SDS011;18807;52.434;13.238;2023-04-12T06:49:33;5.93;;;3.40;;
32329;SDS011;18807;52.434;13.238;2023-04-12T06:57:12;7.93;;;3.28;;
32329;SDS011;18807;52.434;13.238;2023-04-12T07:04:52;5.72;;;2.63;;
32329;SDS011;18807;52.434;13.238;2023-04-12T07:12:28;5.07;;;2.28;;
32329;SDS011;18807;52.434;13.238;2023-04-12T07:20:02;7.03;;;2.95;;
32329;SDS011;18807;52.434;13.238;2023-04-12T07:27:45;4.90;;;2.38;;
32329;SDS011;18807;52.434;13.238;2023-04-12T07:51:39;11.70;;;2.35;;
32329;SDS011;18807;52.434;13.238;2023-04-12T07:59:32;10.63;;;2.15;;
32329;SDS011;18807;52.434;13.238;2023-04-12T08:07:19;3.15;;;1.48;;
32329;SDS011;18807;52.434;13.238;2023-04-12T08:14:58;4.70;;;2.45;;
32329;SDS011;18807;52.434;13.238;2023-04-12T08:22:32;6.05;;;1.38;;
32329;SDS011;18807;52.434;13.238;2023-04-12T08:38:39;8.93;;;1.10;;
32329;SDS011;18807;52.434;13.238;2023-04-12T08:46:25;5.40;;;1.27;;
32329;SDS011;18807;52.434;13.238;2023-04-12T08:54:14;3.10;;;1.00;;
32329;SDS011;18807;52.434;13.238;2023-04-12T09:01:50;4.18;;;0.93;;
32329;SDS011;18807;52.434;13.238;2023-04-12T09:09:40;3.47;;;1.17;;
32329;SDS011;18807;52.434;13.238;2023-04-12T09:25:44;1.92;;;1.02;;
32329;SDS011;18807;52.434;13.238;2023-04-12T09:33:33;2.63;;;1.02;;
32329;SDS011;18807;52.434;13.238;2023-04-12T09:41:18;3.25;;;1.42;;
32329;SDS011;18807;52.434;13.238;2023-04-12T09:57:19;7.90;;;2.72;;
32329;SDS011;18807;52.434;13.238;2023-04-12T10:05:12;3.85;;;1.52;;
32329;SDS011;18807;52.434;13.238;2023-04-12T10:13:12;3.73;;;1.50;;
32329;SDS011;18807;52.434;13.238;2023-04-12T10:21:22;3.22;;;1.48;;
32329;SDS011;18807;52.434;13.238;2023-04-12T10:29:20;6.43;;;1.45;;
32329;SDS011;18807;52.434;13.238;2023-04-12T10:37:10;5.13;;;1.30;;
32329;SDS011;18807;52.434;13.238;2023-04-12T10:53:34;2.97;;;1.10;;
32329;SDS011;18807;52.434;13.238;2023-04-12T11:01:17;4.93;;;1.27;;
32329;SDS011;18807;52.434;13.238;2023-04-12T11:08:54;3.33;;;1.50;;
32329;SDS011;18807;52.434;13.238;2023-04-12T11:25:04;3.13;;;0.95;;
32329;SDS011;18807;52.434;13.238;2023-04-12T11:32:39;2.40;;;1.10;;
32329;SDS011;18807;52.434;13.238;2023-04-12T11:48:09;4.30;;;1.10;;
32329;SDS011;18807;52.434;13.238;2023-04-12T11:55:52;1.80;;;1.40;;
32329;SDS011;18807;52.434;13.238;2023-04-12T12:03:50;4.05;;;1.40;;
32329;SDS011;18807;52.434;13.238;2023-04-12T12:11:26;6.55;;;1.77;;
32329;SDS011;18807;52.434;13.238;2023-04-12T12:19:09;4.70;;;1.38;;
32329;SDS011;18807;52.434;13.238;2023-04-12T12:35:29;2.35;;;1.02;;
32329;SDS011;18807;52.434;13.238;2023-04-12T12:43:15;4.25;;;1.27;;
32329;SDS011;18807;52.434;13.238;2023-04-12T12:51:00;2.25;;;1.00;;
32329;SDS011;18807;52.434;13.238;2023-04-12T12:58:43;5.57;;;1.10;;
32329;SDS011;18807;52.434;13.238;2023-04-12T13:06:28;3.83;;;1.20;;
32329;SDS011;18807;52.434;13.238;2023-04-12T13:14:32;3.40;;;1.23;;
32329;SDS011;18807;52.434;13.238;2023-04-12T13:22:10;2.47;;;0.93;;
32329;SDS011;18807;52.434;13.238;2023-04-12T13:30:16;4.53;;;1.42;;
32329;SDS011;18807;52.434;13.238;2023-04-12T13:37:57;5.10;;;1.45;;
32329;SDS011;18807;52.434;13.238;2023-04-12T13:45:37;3.70;;;1.75;;
32329;SDS011;18807;52.434;13.238;2023-04-12T13:53:20;4.25;;;1.25;;
32329;SDS011;18807;52.434;13.238;2023-04-12T14:01:02;6.30;;;1.30;;
32329;SDS011;18807;52.434;13.238;2023-04-12T14:08:48;2.83;;;0.88;;
32329;SDS011;18807;52.434;13.238;2023-04-12T14:16:39;9.48;;;1.10;;
32329;SDS011;18807;52.434;13.238;2023-04-12T14:24:20;2.35;;;1.02;;
32329;SDS011;18807;52.434;13.238;2023-04-12T14:32:17;2.55;;;0.77;;
32329;SDS011;18807;52.434;13.238;2023-04-12T14:39:56;2.22;;;1.13;;
32329;SDS011;18807;52.434;13.238;2023-04-12T14:47:47;3.88;;;1.08;;
32329;SDS011;18807;52.434;13.238;2023-04-12T14:55:32;3.63;;;1.30;;
32329;SDS011;18807;52.434;13.238;2023-04-12T15:03:24;4.03;;;1.45;;
32329;SDS011;18807;52.434;13.238;2023-04-12T15:11:22;3.90;;;1.42;;
32329;SDS011;18807;52.434;13.238;2023-04-12T15:27:12;2.25;;;1.30;;
32329;SDS011;18807;52.434;13.238;2023-04-12T15:35:25;3.90;;;2.03;;
32329;SDS011;18807;52.434;13.238;2023-04-12T15:43:08;3.03;;;2.03;;
32329;SDS011;18807;52.434;13.238;2023-04-12T15:50:41;3.42;;;1.75;;
32329;SDS011;18807;52.434;13.238;2023-04-12T15:58:23;6.73;;;2.97;;
32329;SDS011;18807;52.434;13.238;2023-04-12T16:06:07;6.55;;;2.22;;
32329;SDS011;18807;52.434;13.238;2023-04-12T16:13:42;3.72;;;1.85;;
32329;SDS011;18807;52.434;13.238;2023-04-12T16:22:05;8.63;;;3.22;;
32329;SDS011;18807;52.434;13.238;2023-04-12T16:29:43;8.23;;;2.33;;
32329;SDS011;18807;52.434;13.238;2023-04-12T16:45:23;4.45;;;1.90;;
32329;SDS011;18807;52.434;13.238;2023-04-12T16:52:57;5.88;;;1.90;;
32329;SDS011;18807;52.434;13.238;2023-04-12T17:01:04;3.15;;;1.98;;
32329;SDS011;18807;52.434;13.238;2023-04-12T17:08:51;2.45;;;1.45;;
32329;SDS011;18807;52.434;13.238;2023-04-12T17:17:03;2.25;;;1.65;;
32329;SDS011;18807;52.434;13.238;2023-04-12T17:24:48;2.22;;;1.67;;
32329;SDS011;18807;52.434;13.238;2023-04-12T17:32:24;6.93;;;2.28;;
32329;SDS011;18807;52.434;13.238;2023-04-12T17:41:41;2.40;;;2.08;;
32329;SDS011;18807;52.434;13.238;2023-04-12T17:48:26;3.60;;;2.22;;
32329;SDS011;18807;52.434;13.238;2023-04-12T17:56:00;2.92;;;1.90;;
32329;SDS011;18807;52.434;13.238;2023-04-12T18:03:41;3.83;;;2.58;;
32329;SDS011;18807;52.434;13.238;2023-04-12T18:11:43;4.47;;;2.55;;
32329;SDS011;18807;52.434;13.238;2023-04-12T18:19:25;3.65;;;2.50;;
32329;SDS011;18807;52.434;13.238;2023-04-12T18:26:59;5.43;;;2.42;;
32329;SDS011;18807;52.434;13.238;2023-04-12T18:34:47;3.22;;;2.53;;
32329;SDS011;18807;52.434;13.238;2023-04-12T18:42:30;4.85;;;3.08;;
32329;SDS011;18807;52.434;13.238;2023-04-12T18:50:12;4.85;;;3.03;;
32329;SDS011;18807;52.434;13.238;2023-04-12T18:57:46;3.33;;;2.58;;
32329;SDS011;18807;52.434;13.238;2023-04-12T19:05:29;4.70;;;2.57;;
32329;SDS011;18807;52.434;13.238;2023-04-12T19:13:06;3.75;;;2.47;;
32329;SDS011;18807;52.434;13.238;2023-04-12T19:20:44;3.42;;;2.72;;
32329;SDS011;18807;52.434;13.238;2023-04-12T19:28:45;4.20;;;3.08;;
32329;SDS011;18807;52.434;13.238;2023-04-12T19:36:23;7.80;;;3.75;;
32329;SDS011;18807;52.434;13.238;2023-04-12T19:44:06;4.15;;;3.50;;
32329;SDS011;18807;52.434;13.238;2023-04-12T19:51:59;5.50;;;4.00;;
32329;SDS011;18807;52.434;13.238;2023-04-12T19:59:51;6.68;;;4.00;;
32329;SDS011;18807;52.434;13.238;2023-04-12T20:07:40;6.60;;;3.58;;
32329;SDS011;18807;52.434;13.238;2023-04-12T20:15:26;4.75;;;3.10;;
32329;SDS011;18807;52.434;13.238;2023-04-12T20:31:03;6.10;;;3.30;;
32329;SDS011;18807;52.434;13.238;2023-04-12T20:38:38;3.35;;;2.92;;
32329;SDS011;18807;52.434;13.238;2023-04-12T20:46:18;4.80;;;3.22;;
32329;SDS011;18807;52.434;13.238;2023-04-12T20:54:09;5.97;;;3.00;;
32329;SDS011;18807;52.434;13.238;2023-04-12T21:01:55;6.13;;;3.22;;
32329;SDS011;18807;52.434;13.238;2023-04-12T21:09:55;5.80;;;3.15;;
32329;SDS011;18807;52.434;13.238;2023-04-12T21:18:06;3.75;;;2.72;;
32329;SDS011;18807;52.434;13.238;2023-04-12T21:26:07;4.13;;;3.33;;
32329;SDS011;18807;52.434;13.238;2023-04-12T21:33:40;7.90;;;3.15;;
32329;SDS011;18807;52.434;13.238;2023-04-12T21:42:03;6.22;;;3.17;;
32329;SDS011;18807;52.434;13.238;2023-04-12T21:49:43;4.93;;;2.85;;
32329;SDS011;18807;52.434;13.238;2023-04-12T21:57:33;4.40;;;3.30;;
32329;SDS011;18807;52.434;13.238;2023-04-12T22:05:16;5.95;;;3.05;;
32329;SDS011;18807;52.434;13.238;2023-04-12T22:12:51;4.35;;;3.38;;
32329;SDS011;18807;52.434;13.238;2023-04-12T22:20:33;4.25;;;3.28;;
32329;SDS011;18807;52.434;13.238;2023-04-12T22:45:56;9.60;;;4.85;;
32329;SDS011;18807;52.434;13.238;2023-04-12T22:53:50;6.13;;;4.37;;
32329;SDS011;18807;52.434;13.238;2023-04-12T23:01:24;6.90;;;4.13;;
32329;SDS011;18807;52.434;13.238;2023-04-12T23:09:02;4.45;;;4.05;;
32329;SDS011;18807;52.434;13.238;2023-04-12T23:24:51;6.63;;;4.70;;
32329;SDS011;18807;52.434;13.238;2023-04-12T23:32:38;5.63;;;4.57;;
32329;SDS011;18807;52.434;13.238;2023-04-12T23:40:25;5.03;;;4.38;;
32329;SDS011;18807;52.434;13.238;2023-04-12T23:48:03;4.72;;;4.07;;
32329;SDS011;18807;52.434;13.238;2023-04-12T23:55:48;4.82;;;3.70;;
